sensor_id;sensor_type;location;lat;lon;timestamp;temperature;humidity
22364;DHT22;11349;53.412;-1.328;2024-01-30T00:01:13;15.00;99.90
22364;DHT22;11349;53.412;-1.328;2024-01-30T00:03:39;15.10;99.90
22364;DHT22;11349;53.412;-1.328;2024-01-30T00:06:05;15.10;99.90
22364;DHT22;11349;53.412;-1.328;2024-01-30T00:08:31;15.20;99.90
22364;DHT22;11349;53.412;-1.328;2024-01-30T00:10:56;15.30;99.90
22364;DHT22;11349;53.412;-1.328;2024-01-30T00:13:22;15.00;99.90
22364;DHT22;11349;53.412;-1.328;2024-01-30T00:15:48;15.00;99.90
22364;DHT22;11349;53.412;-1.328;2024-01-30T00:18:14;15.10;99.90
22364;DHT22;11349;53.412;-1.328;2024-01-30T00:20:40;14.50;1.00
22364;DHT22;11349;53.412;-1.328;2024-01-30T00:23:06;14.40;1.00
22364;DHT22;11349;53.412;-1.328;2024-01-30T00:25:31;14.50;1.00
22364;DHT22;11349;53.412;-1.328;2024-01-30T00:27:58;14.50;1.00
22364;DHT22;11349;53.412;-1.328;2024-01-30T00:30:24;14.30;1.00
22364;DHT22;11349;53.412;-1.328;2024-01-30T00:32:50;14.00;99.90
22364;DHT22;11349;53.412;-1.328;2024-01-30T00:35:16;14.10;77.80
22364;DHT22;11349;53.412;-1.328;2024-01-30T00:37:41;13.80;99.90
22364;DHT22;11349;53.412;-1.328;2024-01-30T00:40:08;13.70;99.90
22364;DHT22;11349;53.412;-1.328;2024-01-30T00:42:35;13.50;99.90
22364;DHT22;11349;53.412;-1.328;2024-01-30T00:45:01;13.60;99.90
22364;DHT22;11349;53.412;-1.328;2024-01-30T00:47:27;13.60;99.90
22364;DHT22;11349;53.412;-1.328;2024-01-30T00:49:54;13.90;99.90
22364;DHT22;11349;53.412;-1.328;2024-01-30T00:52:20;14.20;1.00
22364;DHT22;11349;53.412;-1.328;2024-01-30T00:54:45;13.80;99.90
22364;DHT22;11349;53.412;-1.328;2024-01-30T00:57:13;14.00;99.90
22364;DHT22;11349;53.412;-1.328;2024-01-30T00:59:38;14.00;99.90
22364;DHT22;11349;53.412;-1.328;2024-01-30T01:02:04;14.00;99.90
22364;DHT22;11349;53.412;-1.328;2024-01-30T01:04:30;14.50;99.90
22364;DHT22;11349;53.412;-1.328;2024-01-30T01:06:55;14.20;1.00
22364;DHT22;11349;53.412;-1.328;2024-01-30T01:09:21;14.20;12.20
22364;DHT22;11349;53.412;-1.328;2024-01-30T01:11:47;14.50;1.00
22364;DHT22;11349;53.412;-1.328;2024-01-30T01:14:13;14.20;1.00
22364;DHT22;11349;53.412;-1.328;2024-01-30T01:16:38;13.70;99.90
22364;DHT22;11349;53.412;-1.328;2024-01-30T01:19:04;13.70;99.90
22364;DHT22;11349;53.412;-1.328;2024-01-30T01:21:30;13.30;99.90
22364;DHT22;11349;53.412;-1.328;2024-01-30T01:23:55;13.10;1.00
22364;DHT22;11349;53.412;-1.328;2024-01-30T01:26:21;13.40;99.90
22364;DHT22;11349;53.412;-1.328;2024-01-30T01:28:47;13.00;1.00
22364;DHT22;11349;53.412;-1.328;2024-01-30T01:31:13;13.30;99.90
22364;DHT22;11349;53.412;-1.328;2024-01-30T01:33:38;13.20;1.00
22364;DHT22;11349;53.412;-1.328;2024-01-30T01:36:04;13.00;1.00
22364;DHT22;11349;53.412;-1.328;2024-01-30T01:38:30;13.00;1.00
22364;DHT22;11349;53.412;-1.328;2024-01-30T01:40:56;13.00;1.00
22364;DHT22;11349;53.412;-1.328;2024-01-30T01:43:21;12.90;99.90
22364;DHT22;11349;53.412;-1.328;2024-01-30T01:45:47;12.60;99.90
22364;DHT22;11349;53.412;-1.328;2024-01-30T01:48:13;12.60;99.90
22364;DHT22;11349;53.412;-1.328;2024-01-30T01:50:40;12.60;99.90
22364;DHT22;11349;53.412;-1.328;2024-01-30T01:53:07;12.70;99.90
22364;DHT22;11349;53.412;-1.328;2024-01-30T01:55:35;13.00;99.90
22364;DHT22;11349;53.412;-1.328;2024-01-30T01:58:01;13.10;99.90
22364;DHT22;11349;53.412;-1.328;2024-01-30T02:00:27;13.00;99.90
22364;DHT22;11349;53.412;-1.328;2024-01-30T02:02:54;13.10;99.90
22364;DHT22;11349;53.412;-1.328;2024-01-30T02:05:21;13.40;99.90
22364;DHT22;11349;53.412;-1.328;2024-01-30T02:07:47;13.60;99.90
22364;DHT22;11349;53.412;-1.328;2024-01-30T02:10:13;13.80;99.90
22364;DHT22;11349;53.412;-1.328;2024-01-30T02:12:39;13.90;91.00
22364;DHT22;11349;53.412;-1.328;2024-01-30T02:15:05;13.90;99.90
22364;DHT22;11349;53.412;-1.328;2024-01-30T02:17:32;13.90;95.80
22364;DHT22;11349;53.412;-1.328;2024-01-30T02:19:58;14.00;99.90
22364;DHT22;11349;53.412;-1.328;2024-01-30T02:22:24;13.80;99.90
22364;DHT22;11349;53.412;-1.328;2024-01-30T02:24:50;13.70;99.90
22364;DHT22;11349;53.412;-1.328;2024-01-30T02:27:16;13.80;99.90
22364;DHT22;11349;53.412;-1.328;2024-01-30T02:29:41;13.80;99.90
22364;DHT22;11349;53.412;-1.328;2024-01-30T02:32:07;13.80;99.90
22364;DHT22;11349;53.412;-1.328;2024-01-30T02:34:33;13.80;99.90
22364;DHT22;11349;53.412;-1.328;2024-01-30T02:36:59;13.70;99.90
22364;DHT22;11349;53.412;-1.328;2024-01-30T02:39:25;13.80;99.90
22364;DHT22;11349;53.412;-1.328;2024-01-30T02:41:50;13.70;99.90
22364;DHT22;11349;53.412;-1.328;2024-01-30T02:44:16;13.50;99.90
22364;DHT22;11349;53.412;-1.328;2024-01-30T02:46:42;13.20;99.90
22364;DHT22;11349;53.412;-1.328;2024-01-30T02:49:07;13.10;99.90
22364;DHT22;11349;53.412;-1.328;2024-01-30T02:51:33;12.80;99.90
22364;DHT22;11349;53.412;-1.328;2024-01-30T02:53:59;12.50;99.90
22364;DHT22;11349;53.412;-1.328;2024-01-30T02:56:24;12.30;99.90
22364;DHT22;11349;53.412;-1.328;2024-01-30T02:58:50;12.00;99.90
22364;DHT22;11349;53.412;-1.328;2024-01-30T03:01:16;11.90;99.90
22364;DHT22;11349;53.412;-1.328;2024-01-30T03:03:42;11.80;99.90
22364;DHT22;11349;53.412;-1.328;2024-01-30T03:06:08;11.60;99.90
22364;DHT22;11349;53.412;-1.328;2024-01-30T03:08:34;11.40;99.90
22364;DHT22;11349;53.412;-1.328;2024-01-30T03:11:00;11.10;99.90
22364;DHT22;11349;53.412;-1.328;2024-01-30T03:13:26;11.10;99.90
22364;DHT22;11349;53.412;-1.328;2024-01-30T03:15:52;10.90;99.90
22364;DHT22;11349;53.412;-1.328;2024-01-30T03:18:18;10.70;99.90
22364;DHT22;11349;53.412;-1.328;2024-01-30T03:20:44;10.50;99.90
22364;DHT22;11349;53.412;-1.328;2024-01-30T03:23:10;10.30;99.90
22364;DHT22;11349;53.412;-1.328;2024-01-30T03:25:35;10.10;99.90
22364;DHT22;11349;53.412;-1.328;2024-01-30T03:28:01;10.00;99.90
22364;DHT22;11349;53.412;-1.328;2024-01-30T03:30:27;10.00;99.90
22364;DHT22;11349;53.412;-1.328;2024-01-30T03:32:52;10.10;99.90
22364;DHT22;11349;53.412;-1.328;2024-01-30T03:35:19;10.00;99.90
22364;DHT22;11349;53.412;-1.328;2024-01-30T03:37:45;10.00;99.90
22364;DHT22;11349;53.412;-1.328;2024-01-30T03:40:11;10.00;99.90
22364;DHT22;11349;53.412;-1.328;2024-01-30T03:42:36;9.90;99.90
22364;DHT22;11349;53.412;-1.328;2024-01-30T03:45:02;9.70;99.90
22364;DHT22;11349;53.412;-1.328;2024-01-30T03:47:28;9.50;99.90
22364;DHT22;11349;53.412;-1.328;2024-01-30T03:49:54;9.60;99.90
22364;DHT22;11349;53.412;-1.328;2024-01-30T03:52:20;9.40;99.90
22364;DHT22;11349;53.412;-1.328;2024-01-30T03:54:45;9.30;99.90
22364;DHT22;11349;53.412;-1.328;2024-01-30T03:57:11;9.10;99.90
22364;DHT22;11349;53.412;-1.328;2024-01-30T03:59:37;9.00;99.90
22364;DHT22;11349;53.412;-1.328;2024-01-30T04:02:03;9.00;99.90
22364;DHT22;11349;53.412;-1.328;2024-01-30T04:04:29;9.00;99.90
22364;DHT22;11349;53.412;-1.328;2024-01-30T04:06:57;9.00;99.90
22364;DHT22;11349;53.412;-1.328;2024-01-30T04:09:23;8.90;99.90
22364;DHT22;11349;53.412;-1.328;2024-01-30T04:11:49;8.80;99.90
22364;DHT22;11349;53.412;-1.328;2024-01-30T04:14:15;8.70;99.90
22364;DHT22;11349;53.412;-1.328;2024-01-30T04:16:40;8.90;99.90
22364;DHT22;11349;53.412;-1.328;2024-01-30T04:19:06;8.90;99.90
22364;DHT22;11349;53.412;-1.328;2024-01-30T04:21:32;8.90;99.90
22364;DHT22;11349;53.412;-1.328;2024-01-30T04:23:58;8.90;99.90
22364;DHT22;11349;53.412;-1.328;2024-01-30T04:26:23;9.00;99.90
22364;DHT22;11349;53.412;-1.328;2024-01-30T04:28:49;9.00;99.90
22364;DHT22;11349;53.412;-1.328;2024-01-30T04:31:15;9.00;99.90
22364;DHT22;11349;53.412;-1.328;2024-01-30T04:33:40;8.90;99.90
22364;DHT22;11349;53.412;-1.328;2024-01-30T04:36:08;8.90;99.90
22364;DHT22;11349;53.412;-1.328;2024-01-30T04:38:38;8.90;99.90
22364;DHT22;11349;53.412;-1.328;2024-01-30T04:41:04;8.80;99.90
22364;DHT22;11349;53.412;-1.328;2024-01-30T04:43:30;8.90;99.90
22364;DHT22;11349;53.412;-1.328;2024-01-30T04:45:56;8.80;99.90
22364;DHT22;11349;53.412;-1.328;2024-01-30T04:48:22;8.70;99.90
22364;DHT22;11349;53.412;-1.328;2024-01-30T04:50:47;8.80;99.90
22364;DHT22;11349;53.412;-1.328;2024-01-30T04:53:13;8.50;99.90
22364;DHT22;11349;53.412;-1.328;2024-01-30T04:55:39;8.60;99.90
22364;DHT22;11349;53.412;-1.328;2024-01-30T04:58:04;8.50;99.90
22364;DHT22;11349;53.412;-1.328;2024-01-30T05:00:30;8.50;99.90
22364;DHT22;11349;53.412;-1.328;2024-01-30T05:02:56;8.60;99.90
22364;DHT22;11349;53.412;-1.328;2024-01-30T05:05:22;8.60;99.90
22364;DHT22;11349;53.412;-1.328;2024-01-30T05:07:47;8.60;99.90
22364;DHT22;11349;53.412;-1.328;2024-01-30T05:10:13;8.60;99.90
22364;DHT22;11349;53.412;-1.328;2024-01-30T05:12:40;8.60;99.90
22364;DHT22;11349;53.412;-1.328;2024-01-30T05:15:06;8.60;99.90
22364;DHT22;11349;53.412;-1.328;2024-01-30T05:17:32;8.50;99.90
22364;DHT22;11349;53.412;-1.328;2024-01-30T05:19:58;8.60;99.90
22364;DHT22;11349;53.412;-1.328;2024-01-30T05:22:24;8.60;99.90
22364;DHT22;11349;53.412;-1.328;2024-01-30T05:24:50;8.60;99.90
22364;DHT22;11349;53.412;-1.328;2024-01-30T05:27:15;8.50;99.90
22364;DHT22;11349;53.412;-1.328;2024-01-30T05:29:41;8.50;99.90
22364;DHT22;11349;53.412;-1.328;2024-01-30T05:32:07;8.50;99.90
22364;DHT22;11349;53.412;-1.328;2024-01-30T05:34:33;8.40;99.90
22364;DHT22;11349;53.412;-1.328;2024-01-30T05:36:59;8.40;99.90
22364;DHT22;11349;53.412;-1.328;2024-01-30T05:39:24;8.40;99.90
22364;DHT22;11349;53.412;-1.328;2024-01-30T05:41:50;8.40;99.90
22364;DHT22;11349;53.412;-1.328;2024-01-30T05:44:16;8.30;99.90
22364;DHT22;11349;53.412;-1.328;2024-01-30T05:46:41;8.30;99.90
22364;DHT22;11349;53.412;-1.328;2024-01-30T05:49:07;8.30;99.90
22364;DHT22;11349;53.412;-1.328;2024-01-30T05:51:33;8.20;99.90
22364;DHT22;11349;53.412;-1.328;2024-01-30T05:53:58;8.20;99.90
22364;DHT22;11349;53.412;-1.328;2024-01-30T05:56:24;8.20;99.90
22364;DHT22;11349;53.412;-1.328;2024-01-30T05:58:50;8.20;99.90
22364;DHT22;11349;53.412;-1.328;2024-01-30T06:01:16;8.10;99.90
22364;DHT22;11349;53.412;-1.328;2024-01-30T06:03:43;8.10;99.90
22364;DHT22;11349;53.412;-1.328;2024-01-30T06:06:09;8.10;99.90
22364;DHT22;11349;53.412;-1.328;2024-01-30T06:08:34;8.00;99.90
22364;DHT22;11349;53.412;-1.328;2024-01-30T06:11:00;8.00;99.90
22364;DHT22;11349;53.412;-1.328;2024-01-30T06:13:26;8.00;99.90
22364;DHT22;11349;53.412;-1.328;2024-01-30T06:15:52;8.00;99.90
22364;DHT22;11349;53.412;-1.328;2024-01-30T06:18:18;7.90;99.90
22364;DHT22;11349;53.412;-1.328;2024-01-30T06:20:44;8.00;99.90
22364;DHT22;11349;53.412;-1.328;2024-01-30T06:23:10;7.90;99.90
22364;DHT22;11349;53.412;-1.328;2024-01-30T06:25:35;7.90;99.90
22364;DHT22;11349;53.412;-1.328;2024-01-30T06:28:01;7.90;99.90
22364;DHT22;11349;53.412;-1.328;2024-01-30T06:30:27;7.90;99.90
22364;DHT22;11349;53.412;-1.328;2024-01-30T06:32:52;7.90;99.90
22364;DHT22;11349;53.412;-1.328;2024-01-30T06:35:18;7.80;99.90
22364;DHT22;11349;53.412;-1.328;2024-01-30T06:37:44;7.80;99.90
22364;DHT22;11349;53.412;-1.328;2024-01-30T06:40:10;7.80;99.90
22364;DHT22;11349;53.412;-1.328;2024-01-30T06:42:35;7.80;99.90
22364;DHT22;11349;53.412;-1.328;2024-01-30T06:45:01;7.80;99.90
22364;DHT22;11349;53.412;-1.328;2024-01-30T06:47:27;7.80;99.90
22364;DHT22;11349;53.412;-1.328;2024-01-30T06:49:54;7.60;99.90
22364;DHT22;11349;53.412;-1.328;2024-01-30T06:52:19;7.70;99.90
22364;DHT22;11349;53.412;-1.328;2024-01-30T06:54:45;7.70;99.90
22364;DHT22;11349;53.412;-1.328;2024-01-30T06:57:11;7.60;99.90
22364;DHT22;11349;53.412;-1.328;2024-01-30T06:59:37;7.60;99.90
22364;DHT22;11349;53.412;-1.328;2024-01-30T07:02:11;7.60;99.90
22364;DHT22;11349;53.412;-1.328;2024-01-30T07:04:37;7.50;99.90
22364;DHT22;11349;53.412;-1.328;2024-01-30T07:07:03;7.50;99.90
22364;DHT22;11349;53.412;-1.328;2024-01-30T07:09:31;7.60;99.90
22364;DHT22;11349;53.412;-1.328;2024-01-30T07:11:56;7.50;99.90
22364;DHT22;11349;53.412;-1.328;2024-01-30T07:14:24;7.50;99.90
22364;DHT22;11349;53.412;-1.328;2024-01-30T07:16:50;7.60;99.90
22364;DHT22;11349;53.412;-1.328;2024-01-30T07:19:16;7.60;99.90
22364;DHT22;11349;53.412;-1.328;2024-01-30T07:21:42;7.50;99.90
22364;DHT22;11349;53.412;-1.328;2024-01-30T07:24:08;7.50;99.90
22364;DHT22;11349;53.412;-1.328;2024-01-30T07:26:33;7.40;99.90
22364;DHT22;11349;53.412;-1.328;2024-01-30T07:29:01;7.40;99.90
22364;DHT22;11349;53.412;-1.328;2024-01-30T07:31:27;7.30;99.90
22364;DHT22;11349;53.412;-1.328;2024-01-30T07:33:52;7.40;99.90
22364;DHT22;11349;53.412;-1.328;2024-01-30T07:36:19;7.40;99.90
22364;DHT22;11349;53.412;-1.328;2024-01-30T07:38:45;7.40;99.90
22364;DHT22;11349;53.412;-1.328;2024-01-30T07:41:11;7.40;99.90
22364;DHT22;11349;53.412;-1.328;2024-01-30T07:43:38;7.40;99.90
22364;DHT22;11349;53.412;-1.328;2024-01-30T07:46:04;7.30;99.90
22364;DHT22;11349;53.412;-1.328;2024-01-30T07:48:34;7.30;99.90
22364;DHT22;11349;53.412;-1.328;2024-01-30T07:51:00;7.30;99.90
22364;DHT22;11349;53.412;-1.328;2024-01-30T07:53:25;7.20;99.90
22364;DHT22;11349;53.412;-1.328;2024-01-30T07:55:52;7.30;99.90
22364;DHT22;11349;53.412;-1.328;2024-01-30T07:58:17;7.40;99.90
22364;DHT22;11349;53.412;-1.328;2024-01-30T08:00:44;7.30;99.90
22364;DHT22;11349;53.412;-1.328;2024-01-30T08:03:10;7.30;99.90
22364;DHT22;11349;53.412;-1.328;2024-01-30T08:05:36;7.30;99.90
22364;DHT22;11349;53.412;-1.328;2024-01-30T08:08:02;7.30;99.90
22364;DHT22;11349;53.412;-1.328;2024-01-30T08:10:27;7.30;99.90
22364;DHT22;11349;53.412;-1.328;2024-01-30T08:12:53;7.40;99.90
22364;DHT22;11349;53.412;-1.328;2024-01-30T08:15:19;7.30;99.90
22364;DHT22;11349;53.412;-1.328;2024-01-30T08:17:44;7.30;99.90
22364;DHT22;11349;53.412;-1.328;2024-01-30T08:20:11;7.30;99.90
22364;DHT22;11349;53.412;-1.328;2024-01-30T08:22:40;7.30;99.90
22364;DHT22;11349;53.412;-1.328;2024-01-30T08:25:06;7.30;99.90
22364;DHT22;11349;53.412;-1.328;2024-01-30T08:27:32;7.40;99.90
22364;DHT22;11349;53.412;-1.328;2024-01-30T08:29:58;7.40;99.90
22364;DHT22;11349;53.412;-1.328;2024-01-30T08:32:24;7.40;99.90
22364;DHT22;11349;53.412;-1.328;2024-01-30T08:34:49;7.30;99.90
22364;DHT22;11349;53.412;-1.328;2024-01-30T08:37:15;7.30;99.90
22364;DHT22;11349;53.412;-1.328;2024-01-30T08:39:43;7.30;99.90
22364;DHT22;11349;53.412;-1.328;2024-01-30T08:42:08;7.30;99.90
22364;DHT22;11349;53.412;-1.328;2024-01-30T08:44:34;7.30;99.90
22364;DHT22;11349;53.412;-1.328;2024-01-30T08:47:00;7.30;99.90
22364;DHT22;11349;53.412;-1.328;2024-01-30T08:49:25;7.30;99.90
22364;DHT22;11349;53.412;-1.328;2024-01-30T08:51:51;7.30;99.90
22364;DHT22;11349;53.412;-1.328;2024-01-30T08:54:17;7.30;99.90
22364;DHT22;11349;53.412;-1.328;2024-01-30T08:56:43;7.30;99.90
22364;DHT22;11349;53.412;-1.328;2024-01-30T08:59:08;7.30;99.90
22364;DHT22;11349;53.412;-1.328;2024-01-30T09:01:34;7.30;99.90
22364;DHT22;11349;53.412;-1.328;2024-01-30T09:04:00;7.30;99.90
22364;DHT22;11349;53.412;-1.328;2024-01-30T09:06:25;7.20;99.90
22364;DHT22;11349;53.412;-1.328;2024-01-30T09:08:53;7.20;99.90
22364;DHT22;11349;53.412;-1.328;2024-01-30T09:11:19;7.20;99.90
22364;DHT22;11349;53.412;-1.328;2024-01-30T09:13:45;7.30;99.90
22364;DHT22;11349;53.412;-1.328;2024-01-30T09:16:11;7.30;99.90
22364;DHT22;11349;53.412;-1.328;2024-01-30T09:18:36;7.30;99.90
22364;DHT22;11349;53.412;-1.328;2024-01-30T09:21:02;7.30;99.90
22364;DHT22;11349;53.412;-1.328;2024-01-30T09:23:28;7.30;99.90
22364;DHT22;11349;53.412;-1.328;2024-01-30T09:25:54;7.30;99.90
22364;DHT22;11349;53.412;-1.328;2024-01-30T09:28:19;7.30;99.90
22364;DHT22;11349;53.412;-1.328;2024-01-30T09:30:45;7.30;99.90
22364;DHT22;11349;53.412;-1.328;2024-01-30T09:33:11;7.30;99.90
22364;DHT22;11349;53.412;-1.328;2024-01-30T09:35:37;7.40;99.90
22364;DHT22;11349;53.412;-1.328;2024-01-30T09:38:03;7.40;99.90
22364;DHT22;11349;53.412;-1.328;2024-01-30T09:40:28;7.40;99.90
22364;DHT22;11349;53.412;-1.328;2024-01-30T09:42:54;7.40;99.90
22364;DHT22;11349;53.412;-1.328;2024-01-30T09:45:24;7.40;99.90
22364;DHT22;11349;53.412;-1.328;2024-01-30T09:47:51;7.50;99.90
22364;DHT22;11349;53.412;-1.328;2024-01-30T09:50:19;7.50;99.90
22364;DHT22;11349;53.412;-1.328;2024-01-30T09:52:46;7.50;99.90
22364;DHT22;11349;53.412;-1.328;2024-01-30T09:55:12;7.50;99.90
22364;DHT22;11349;53.412;-1.328;2024-01-30T09:57:38;7.50;99.90
22364;DHT22;11349;53.412;-1.328;2024-01-30T10:00:05;7.60;99.90
22364;DHT22;11349;53.412;-1.328;2024-01-30T10:02:35;7.50;99.90
22364;DHT22;11349;53.412;-1.328;2024-01-30T10:05:01;7.50;99.90
22364;DHT22;11349;53.412;-1.328;2024-01-30T10:07:27;7.50;99.90
22364;DHT22;11349;53.412;-1.328;2024-01-30T10:09:53;7.50;99.90
22364;DHT22;11349;53.412;-1.328;2024-01-30T10:12:22;7.50;99.90
22364;DHT22;11349;53.412;-1.328;2024-01-30T10:14:48;7.50;99.90
22364;DHT22;11349;53.412;-1.328;2024-01-30T10:17:13;7.40;99.90
22364;DHT22;11349;53.412;-1.328;2024-01-30T10:19:40;7.50;99.90
22364;DHT22;11349;53.412;-1.328;2024-01-30T10:22:06;7.60;99.90
22364;DHT22;11349;53.412;-1.328;2024-01-30T10:24:34;7.50;99.90
22364;DHT22;11349;53.412;-1.328;2024-01-30T10:27:00;7.50;99.90
22364;DHT22;11349;53.412;-1.328;2024-01-30T10:29:27;7.50;99.90
22364;DHT22;11349;53.412;-1.328;2024-01-30T10:32:03;7.60;99.90
22364;DHT22;11349;53.412;-1.328;2024-01-30T10:34:30;7.50;99.90
22364;DHT22;11349;53.412;-1.328;2024-01-30T10:39:29;7.50;99.90
22364;DHT22;11349;53.412;-1.328;2024-01-30T10:41:59;7.50;99.90
22364;DHT22;11349;53.412;-1.328;2024-01-30T10:44:28;7.50;99.90
22364;DHT22;11349;53.412;-1.328;2024-01-30T10:47:00;7.40;99.90
22364;DHT22;11349;53.412;-1.328;2024-01-30T10:49:28;7.50;99.90
22364;DHT22;11349;53.412;-1.328;2024-01-30T10:51:55;7.50;99.90
22364;DHT22;11349;53.412;-1.328;2024-01-30T10:54:22;7.50;99.90
22364;DHT22;11349;53.412;-1.328;2024-01-30T10:56:49;7.50;99.90
22364;DHT22;11349;53.412;-1.328;2024-01-30T10:59:15;7.50;99.90
22364;DHT22;11349;53.412;-1.328;2024-01-30T11:01:41;7.50;99.90
22364;DHT22;11349;53.412;-1.328;2024-01-30T11:04:08;7.50;99.90
22364;DHT22;11349;53.412;-1.328;2024-01-30T11:06:41;7.50;99.90
22364;DHT22;11349;53.412;-1.328;2024-01-30T11:09:10;7.60;99.90
22364;DHT22;11349;53.412;-1.328;2024-01-30T11:11:59;7.60;99.90
22364;DHT22;11349;53.412;-1.328;2024-01-30T11:14:26;7.50;99.90
22364;DHT22;11349;53.412;-1.328;2024-01-30T11:16:52;7.50;99.90
22364;DHT22;11349;53.412;-1.328;2024-01-30T11:19:30;7.50;99.90
22364;DHT22;11349;53.412;-1.328;2024-01-30T11:21:57;7.40;99.90
22364;DHT22;11349;53.412;-1.328;2024-01-30T11:24:23;7.40;99.90
22364;DHT22;11349;53.412;-1.328;2024-01-30T11:26:55;7.40;99.90
22364;DHT22;11349;53.412;-1.328;2024-01-30T11:29:27;7.40;99.90
22364;DHT22;11349;53.412;-1.328;2024-01-30T11:31:54;7.50;99.90
22364;DHT22;11349;53.412;-1.328;2024-01-30T11:34:21;7.50;99.90
22364;DHT22;11349;53.412;-1.328;2024-01-30T11:36:58;7.50;99.90
22364;DHT22;11349;53.412;-1.328;2024-01-30T11:39:29;7.40;99.90
22364;DHT22;11349;53.412;-1.328;2024-01-30T11:41:55;7.50;99.90
22364;DHT22;11349;53.412;-1.328;2024-01-30T11:44:22;7.40;99.90
22364;DHT22;11349;53.412;-1.328;2024-01-30T11:46:48;7.50;99.90
22364;DHT22;11349;53.412;-1.328;2024-01-30T11:49:15;7.60;99.90
22364;DHT22;11349;53.412;-1.328;2024-01-30T11:51:41;7.60;99.90
22364;DHT22;11349;53.412;-1.328;2024-01-30T11:54:08;7.60;99.90
22364;DHT22;11349;53.412;-1.328;2024-01-30T11:56:34;7.50;99.90
22364;DHT22;11349;53.412;-1.328;2024-01-30T11:58:59;7.50;99.90
22364;DHT22;11349;53.412;-1.328;2024-01-30T12:01:26;7.40;99.90
22364;DHT22;11349;53.412;-1.328;2024-01-30T12:03:52;7.50;99.90
22364;DHT22;11349;53.412;-1.328;2024-01-30T12:06:18;7.50;99.90
22364;DHT22;11349;53.412;-1.328;2024-01-30T12:08:59;7.50;99.90
22364;DHT22;11349;53.412;-1.328;2024-01-30T12:11:25;7.60;99.90
22364;DHT22;11349;53.412;-1.328;2024-01-30T12:13:52;7.50;99.90
22364;DHT22;11349;53.412;-1.328;2024-01-30T12:16:19;7.50;99.90
22364;DHT22;11349;53.412;-1.328;2024-01-30T12:18:44;7.60;99.90
22364;DHT22;11349;53.412;-1.328;2024-01-30T12:21:10;7.60;99.90
22364;DHT22;11349;53.412;-1.328;2024-01-30T12:23:36;7.60;99.90
22364;DHT22;11349;53.412;-1.328;2024-01-30T12:26:04;7.50;99.90
22364;DHT22;11349;53.412;-1.328;2024-01-30T12:28:33;7.60;99.90
22364;DHT22;11349;53.412;-1.328;2024-01-30T12:31:04;7.60;99.90
22364;DHT22;11349;53.412;-1.328;2024-01-30T12:33:30;7.60;99.90
22364;DHT22;11349;53.412;-1.328;2024-01-30T12:35:57;7.60;99.90
22364;DHT22;11349;53.412;-1.328;2024-01-30T12:38:27;7.50;99.90
22364;DHT22;11349;53.412;-1.328;2024-01-30T12:40:56;7.60;99.90
22364;DHT22;11349;53.412;-1.328;2024-01-30T12:43:25;7.60;99.90
22364;DHT22;11349;53.412;-1.328;2024-01-30T12:45:52;7.60;99.90
22364;DHT22;11349;53.412;-1.328;2024-01-30T12:48:18;7.70;99.90
22364;DHT22;11349;53.412;-1.328;2024-01-30T12:50:44;7.70;99.90
22364;DHT22;11349;53.412;-1.328;2024-01-30T12:53:10;7.70;99.90
22364;DHT22;11349;53.412;-1.328;2024-01-30T12:55:35;7.70;99.90
22364;DHT22;11349;53.412;-1.328;2024-01-30T12:58:01;7.80;99.90
22364;DHT22;11349;53.412;-1.328;2024-01-30T13:00:27;7.80;99.90
22364;DHT22;11349;53.412;-1.328;2024-01-30T13:02:53;7.80;99.90
22364;DHT22;11349;53.412;-1.328;2024-01-30T13:05:18;7.80;99.90
22364;DHT22;11349;53.412;-1.328;2024-01-30T13:07:44;7.80;99.90
22364;DHT22;11349;53.412;-1.328;2024-01-30T13:10:10;7.70;99.90
22364;DHT22;11349;53.412;-1.328;2024-01-30T13:12:36;7.70;99.90
22364;DHT22;11349;53.412;-1.328;2024-01-30T13:15:04;7.60;99.90
22364;DHT22;11349;53.412;-1.328;2024-01-30T13:17:30;7.60;99.90
22364;DHT22;11349;53.412;-1.328;2024-01-30T13:19:56;7.60;99.90
22364;DHT22;11349;53.412;-1.328;2024-01-30T13:22:22;7.50;99.90
22364;DHT22;11349;53.412;-1.328;2024-01-30T13:24:48;7.50;99.90
22364;DHT22;11349;53.412;-1.328;2024-01-30T13:27:14;7.50;99.90
22364;DHT22;11349;53.412;-1.328;2024-01-30T13:29:39;7.50;99.90
22364;DHT22;11349;53.412;-1.328;2024-01-30T13:32:05;7.50;99.90
22364;DHT22;11349;53.412;-1.328;2024-01-30T13:34:31;7.50;99.90
22364;DHT22;11349;53.412;-1.328;2024-01-30T13:36:57;7.50;99.90
22364;DHT22;11349;53.412;-1.328;2024-01-30T13:39:22;7.60;99.90
22364;DHT22;11349;53.412;-1.328;2024-01-30T13:41:49;7.60;99.90
22364;DHT22;11349;53.412;-1.328;2024-01-30T13:44:15;7.50;99.90
22364;DHT22;11349;53.412;-1.328;2024-01-30T13:46:43;7.50;99.90
22364;DHT22;11349;53.412;-1.328;2024-01-30T13:49:08;7.60;99.90
22364;DHT22;11349;53.412;-1.328;2024-01-30T13:51:34;7.60;99.90
22364;DHT22;11349;53.412;-1.328;2024-01-30T13:54:00;7.70;99.90
22364;DHT22;11349;53.412;-1.328;2024-01-30T13:56:26;7.70;99.90
22364;DHT22;11349;53.412;-1.328;2024-01-30T13:58:52;7.70;99.90
22364;DHT22;11349;53.412;-1.328;2024-01-30T14:01:18;7.70;99.90
22364;DHT22;11349;53.412;-1.328;2024-01-30T14:03:44;7.70;99.90
22364;DHT22;11349;53.412;-1.328;2024-01-30T14:06:10;7.70;99.90
22364;DHT22;11349;53.412;-1.328;2024-01-30T14:08:36;7.80;99.90
22364;DHT22;11349;53.412;-1.328;2024-01-30T14:11:02;7.80;99.90
22364;DHT22;11349;53.412;-1.328;2024-01-30T14:13:29;7.90;99.90
22364;DHT22;11349;53.412;-1.328;2024-01-30T14:15:55;7.90;99.90
22364;DHT22;11349;53.412;-1.328;2024-01-30T14:18:21;7.90;99.90
22364;DHT22;11349;53.412;-1.328;2024-01-30T14:20:47;7.80;99.90
22364;DHT22;11349;53.412;-1.328;2024-01-30T14:23:12;7.80;99.90
22364;DHT22;11349;53.412;-1.328;2024-01-30T14:25:38;7.80;99.90
22364;DHT22;11349;53.412;-1.328;2024-01-30T14:28:04;7.80;99.90
22364;DHT22;11349;53.412;-1.328;2024-01-30T14:30:30;7.80;99.90
22364;DHT22;11349;53.412;-1.328;2024-01-30T14:32:55;7.90;99.90
22364;DHT22;11349;53.412;-1.328;2024-01-30T14:35:21;7.90;99.90
22364;DHT22;11349;53.412;-1.328;2024-01-30T14:37:47;8.00;99.90
22364;DHT22;11349;53.412;-1.328;2024-01-30T14:40:13;7.90;99.90
22364;DHT22;11349;53.412;-1.328;2024-01-30T14:42:38;7.90;99.90
22364;DHT22;11349;53.412;-1.328;2024-01-30T14:45:06;7.90;99.90
22364;DHT22;11349;53.412;-1.328;2024-01-30T14:47:32;7.90;99.90
22364;DHT22;11349;53.412;-1.328;2024-01-30T14:49:58;7.80;99.90
22364;DHT22;11349;53.412;-1.328;2024-01-30T14:52:23;7.90;99.90
22364;DHT22;11349;53.412;-1.328;2024-01-30T14:54:49;7.80;99.90
22364;DHT22;11349;53.412;-1.328;2024-01-30T14:57:15;7.80;99.90
22364;DHT22;11349;53.412;-1.328;2024-01-30T14:59:41;7.80;99.90
22364;DHT22;11349;53.412;-1.328;2024-01-30T15:02:07;7.80;99.90
22364;DHT22;11349;53.412;-1.328;2024-01-30T15:04:33;7.90;99.90
22364;DHT22;11349;53.412;-1.328;2024-01-30T15:06:59;7.80;99.90
22364;DHT22;11349;53.412;-1.328;2024-01-30T15:09:24;7.70;99.90
22364;DHT22;11349;53.412;-1.328;2024-01-30T15:11:52;7.70;99.90
22364;DHT22;11349;53.412;-1.328;2024-01-30T15:14:17;7.60;99.20
22364;DHT22;11349;53.412;-1.328;2024-01-30T15:16:43;7.60;96.20
22364;DHT22;11349;53.412;-1.328;2024-01-30T15:19:09;7.60;95.70
22364;DHT22;11349;53.412;-1.328;2024-01-30T15:21:35;7.60;96.60
22364;DHT22;11349;53.412;-1.328;2024-01-30T15:24:02;7.60;96.40